sensor_id;sensor_type;location;lat;lon;timestamp;pressure;altitude;pressure_sealevel;temperature;humidity
3968;BME280;9221;42.646;23.380;2023-01-25T00:01:19;95540.63;;;2.03;90.66
3968;BME280;9221;42.646;23.380;2023-01-25T00:03:45;95666.06;;;2.47;91.66
3968;BME280;9221;42.646;23.380;2023-01-25T00:06:10;95673.97;;;2.63;92.35
3968;BME280;9221;42.646;23.380;2023-01-25T00:08:36;95532.06;;;2.01;92.21
3968;BME280;9221;42.646;23.380;2023-01-25T00:11:03;95705.75;;;2.87;91.83
3968;BME280;9221;42.646;23.380;2023-01-25T00:13:28;95627.94;;;2.81;92.00
3968;BME280;9221;42.646;23.380;2023-01-25T00:16:02;95591.41;;;2.65;91.72
3968;BME280;9221;42.646;23.380;2023-01-25T00:18:28;95624.72;;;2.93;91.99
3968;BME280;9221;42.646;23.380;2023-01-25T00:20:54;95615.22;;;2.92;91.68
3968;BME280;9221;42.646;23.380;2023-01-25T00:23:19;95623.47;;;3.00;91.76
3968;BME280;9221;42.646;23.380;2023-01-25T00:25:45;95603.03;;;2.93;91.54
3968;BME280;9221;42.646;23.380;2023-01-25T00:28:10;95622.66;;;2.82;91.44
3968;BME280;9221;42.646;23.380;2023-01-25T00:30:35;95656.13;;;2.90;91.10
3968;BME280;9221;42.646;23.380;2023-01-25T00:33:06;95488.22;;;2.11;91.53
3968;BME280;9221;42.646;23.380;2023-01-25T00:35:50;95563.69;;;2.64;91.63
3968;BME280;9221;42.646;23.380;2023-01-25T00:38:36;95615.81;;;2.97;92.05
3968;BME280;9221;42.646;23.380;2023-01-25T00:41:02;95555.28;;;2.41;92.00
3968;BME280;9221;42.646;23.380;2023-01-25T00:43:27;95616.13;;;2.91;91.98
3968;BME280;9221;42.646;23.380;2023-01-25T00:45:59;95622.72;;;2.98;91.66
3968;BME280;9221;42.646;23.380;2023-01-25T00:48:25;95664.47;;;2.79;91.84
3968;BME280;9221;42.646;23.380;2023-01-25T00:50:50;95642.50;;;2.85;92.30
3968;BME280;9221;42.646;23.380;2023-01-25T00:53:15;95635.75;;;2.81;91.81
3968;BME280;9221;42.646;23.380;2023-01-25T00:55:41;95573.56;;;2.40;92.23
3968;BME280;9221;42.646;23.380;2023-01-25T00:58:15;95642.78;;;2.79;92.32
3968;BME280;9221;42.646;23.380;2023-01-25T01:00:40;95666.69;;;2.87;92.38
3968;BME280;9221;42.646;23.380;2023-01-25T01:03:05;95632.16;;;2.83;91.97
3968;BME280;9221;42.646;23.380;2023-01-25T01:05:31;95618.97;;;2.86;91.92
3968;BME280;9221;42.646;23.380;2023-01-25T01:07:56;95619.78;;;2.87;92.09
3968;BME280;9221;42.646;23.380;2023-01-25T01:10:21;95618.44;;;2.80;91.53
3968;BME280;9221;42.646;23.380;2023-01-25T01:12:47;95604.56;;;2.62;91.25
3968;BME280;9221;42.646;23.380;2023-01-25T01:15:12;95611.84;;;2.73;91.40
3968;BME280;9221;42.646;23.380;2023-01-25T01:17:38;95626.66;;;2.72;91.37
3968;BME280;9221;42.646;23.380;2023-01-25T01:20:03;95618.06;;;2.70;91.31
3968;BME280;9221;42.646;23.380;2023-01-25T01:22:29;95578.94;;;2.36;91.04
3968;BME280;9221;42.646;23.380;2023-01-25T01:24:54;95657.91;;;2.72;91.06
3968;BME280;9221;42.646;23.380;2023-01-25T01:27:19;95604.66;;;2.60;91.20
3968;BME280;9221;42.646;23.380;2023-01-25T01:29:45;95617.22;;;2.69;91.04
3968;BME280;9221;42.646;23.380;2023-01-25T01:32:10;95649.31;;;2.70;91.02
3968;BME280;9221;42.646;23.380;2023-01-25T01:34:36;95501.00;;;1.98;90.72
3968;BME280;9221;42.646;23.380;2023-01-25T01:37:02;95604.50;;;2.81;90.91
3968;BME280;9221;42.646;23.380;2023-01-25T01:39:27;95620.59;;;2.89;90.88
3968;BME280;9221;42.646;23.380;2023-01-25T01:41:52;95643.41;;;2.66;90.60
3968;BME280;9221;42.646;23.380;2023-01-25T01:44:39;95607.19;;;2.62;91.21
3968;BME280;9221;42.646;23.380;2023-01-25T01:47:11;95578.28;;;2.14;91.95
3968;BME280;9221;42.646;23.380;2023-01-25T01:49:39;95637.81;;;2.02;93.51
3968;BME280;9221;42.646;23.380;2023-01-25T01:52:17;95596.63;;;1.93;94.33
3968;BME280;9221;42.646;23.380;2023-01-25T01:54:49;95592.78;;;2.00;94.11
3968;BME280;9221;42.646;23.380;2023-01-25T01:57:20;95546.34;;;1.56;94.65
3968;BME280;9221;42.646;23.380;2023-01-25T01:59:59;95472.97;;;1.13;94.98
3968;BME280;9221;42.646;23.380;2023-01-25T02:02:26;95640.34;;;2.04;94.74
3968;BME280;9221;42.646;23.380;2023-01-25T02:04:54;95616.69;;;2.09;93.91
3968;BME280;9221;42.646;23.380;2023-01-25T02:07:24;95590.28;;;1.99;93.32
3968;BME280;9221;42.646;23.380;2023-01-25T02:09:53;95609.94;;;2.05;92.88
3968;BME280;9221;42.646;23.380;2023-01-25T02:12:20;95599.00;;;1.79;93.43
3968;BME280;9221;42.646;23.380;2023-01-25T02:14:51;95594.25;;;1.69;94.05
3968;BME280;9221;42.646;23.380;2023-01-25T02:17:24;95531.66;;;1.36;94.25
3968;BME280;9221;42.646;23.380;2023-01-25T02:20:03;95600.06;;;1.75;94.49
3968;BME280;9221;42.646;23.380;2023-01-25T02:22:55;95594.59;;;1.81;94.15
3968;BME280;9221;42.646;23.380;2023-01-25T02:25:23;95599.41;;;1.89;94.62
3968;BME280;9221;42.646;23.380;2023-01-25T02:28:23;95605.66;;;2.03;94.17
3968;BME280;9221;42.646;23.380;2023-01-25T02:30:47;95649.28;;;1.98;93.60
3968;BME280;9221;42.646;23.380;2023-01-25T02:33:12;95619.44;;;2.06;93.77
3968;BME280;9221;42.646;23.380;2023-01-25T02:35:42;95610.59;;;2.27;93.51
3968;BME280;9221;42.646;23.380;2023-01-25T02:38:10;95601.66;;;1.96;92.57
3968;BME280;9221;42.646;23.380;2023-01-25T02:40:43;95596.97;;;2.22;92.76
3968;BME280;9221;42.646;23.380;2023-01-25T02:43:10;95491.13;;;1.51;92.42
3968;BME280;9221;42.646;23.380;2023-01-25T02:45:35;95575.69;;;1.58;92.52
3968;BME280;9221;42.646;23.380;2023-01-25T02:48:01;95583.56;;;1.76;93.77
3968;BME280;9221;42.646;23.380;2023-01-25T02:50:26;95574.16;;;1.54;94.74
3968;BME280;9221;42.646;23.380;2023-01-25T02:52:52;95670.56;;;1.68;94.89
3968;BME280;9221;42.646;23.380;2023-01-25T02:55:17;95601.09;;;1.90;94.67
3968;BME280;9221;42.646;23.380;2023-01-25T02:57:43;95606.25;;;1.72;94.17
3968;BME280;9221;42.646;23.380;2023-01-25T03:00:09;95633.84;;;2.13;93.96
3968;BME280;9221;42.646;23.380;2023-01-25T03:02:34;95647.50;;;1.80;93.08
3968;BME280;9221;42.646;23.380;2023-01-25T03:04:59;95547.72;;;1.63;93.81
3968;BME280;9221;42.646;23.380;2023-01-25T03:07:25;95540.84;;;1.43;94.11
3968;BME280;9221;42.646;23.380;2023-01-25T03:09:50;95551.81;;;1.50;94.46
3968;BME280;9221;42.646;23.380;2023-01-25T03:12:16;95551.56;;;1.37;94.63
3968;BME280;9221;42.646;23.380;2023-01-25T03:14:41;95595.44;;;1.62;95.57
3968;BME280;9221;42.646;23.380;2023-01-25T03:17:08;95592.66;;;1.48;95.59
3968;BME280;9221;42.646;23.380;2023-01-25T03:19:34;95557.59;;;1.38;96.00
3968;BME280;9221;42.646;23.380;2023-01-25T03:21:59;95593.88;;;1.58;96.45
3968;BME280;9221;42.646;23.380;2023-01-25T03:24:24;95557.16;;;1.47;95.93
3968;BME280;9221;42.646;23.380;2023-01-25T03:26:50;95588.69;;;1.77;95.94
3968;BME280;9221;42.646;23.380;2023-01-25T03:29:33;95601.13;;;1.71;96.07
3968;BME280;9221;42.646;23.380;2023-01-25T03:31:59;95581.53;;;1.63;95.85
3968;BME280;9221;42.646;23.380;2023-01-25T03:34:24;95639.22;;;1.72;96.62
3968;BME280;9221;42.646;23.380;2023-01-25T03:36:49;95548.00;;;1.57;95.67
3968;BME280;9221;42.646;23.380;2023-01-25T03:39:15;95581.69;;;1.97;95.70
3968;BME280;9221;42.646;23.380;2023-01-25T03:41:40;95595.88;;;2.09;95.46
3968;BME280;9221;42.646;23.380;2023-01-25T03:44:07;95565.50;;;2.09;94.70
3968;BME280;9221;42.646;23.380;2023-01-25T03:46:32;95646.34;;;2.24;93.69
3968;BME280;9221;42.646;23.380;2023-01-25T03:48:58;95642.75;;;2.26;94.12
3968;BME280;9221;42.646;23.380;2023-01-25T03:51:23;95575.53;;;2.17;93.21
3968;BME280;9221;42.646;23.380;2023-01-25T03:53:48;95586.25;;;2.28;92.76
3968;BME280;9221;42.646;23.380;2023-01-25T03:56:14;95655.47;;;2.32;92.75
3968;BME280;9221;42.646;23.380;2023-01-25T03:58:44;95609.03;;;2.42;92.59
3968;BME280;9221;42.646;23.380;2023-01-25T04:01:09;95553.28;;;2.29;92.62
3968;BME280;9221;42.646;23.380;2023-01-25T04:03:34;95526.25;;;2.14;92.06
3968;BME280;9221;42.646;23.380;2023-01-25T04:06:00;95572.41;;;2.45;92.01
3968;BME280;9221;42.646;23.380;2023-01-25T04:08:26;95462.03;;;1.62;91.71
3968;BME280;9221;42.646;23.380;2023-01-25T04:10:53;95450.13;;;1.39;91.83
3968;BME280;9221;42.646;23.380;2023-01-25T04:13:20;95622.38;;;2.17;92.53
3968;BME280;9221;42.646;23.380;2023-01-25T04:15:46;95509.66;;;1.62;92.22
3968;BME280;9221;42.646;23.380;2023-01-25T04:18:12;95602.38;;;2.36;92.23
3968;BME280;9221;42.646;23.380;2023-01-25T04:20:37;95524.81;;;2.08;92.23
3968;BME280;9221;42.646;23.380;2023-01-25T04:23:03;95594.84;;;2.30;91.03
3968;BME280;9221;42.646;23.380;2023-01-25T04:25:28;95533.88;;;1.99;90.91
3968;BME280;9221;42.646;23.380;2023-01-25T04:27:54;95508.09;;;1.95;90.48
3968;BME280;9221;42.646;23.380;2023-01-25T04:30:19;95519.97;;;2.00;90.17
3968;BME280;9221;42.646;23.380;2023-01-25T04:32:45;95611.97;;;2.17;89.95
3968;BME280;9221;42.646;23.380;2023-01-25T04:35:10;95576.44;;;2.16;89.88
3968;BME280;9221;42.646;23.380;2023-01-25T04:37:36;95575.25;;;2.23;90.05
3968;BME280;9221;42.646;23.380;2023-01-25T04:40:01;95630.81;;;2.22;89.69
3968;BME280;9221;42.646;23.380;2023-01-25T04:42:27;95558.63;;;1.72;89.10
3968;BME280;9221;42.646;23.380;2023-01-25T04:44:52;95525.47;;;1.58;89.09
3968;BME280;9221;42.646;23.380;2023-01-25T04:47:18;95551.41;;;1.59;89.81
3968;BME280;9221;42.646;23.380;2023-01-25T04:49:43;95599.31;;;1.73;90.37
3968;BME280;9221;42.646;23.380;2023-01-25T04:52:08;95584.75;;;1.88;89.68
3968;BME280;9221;42.646;23.380;2023-01-25T04:54:34;95672.31;;;1.68;89.85
3968;BME280;9221;42.646;23.380;2023-01-25T04:56:59;95573.72;;;1.82;90.18
3968;BME280;9221;42.646;23.380;2023-01-25T04:59:25;95668.47;;;1.77;89.39
3968;BME280;9221;42.646;23.380;2023-01-25T05:01:50;95562.59;;;1.79;89.55
3968;BME280;9221;42.646;23.380;2023-01-25T05:04:15;95531.16;;;1.66;89.46
3968;BME280;9221;42.646;23.380;2023-01-25T05:06:41;95523.72;;;1.58;88.77
3968;BME280;9221;42.646;23.380;2023-01-25T05:09:06;95512.41;;;1.40;89.66
3968;BME280;9221;42.646;23.380;2023-01-25T05:11:31;95507.44;;;1.35;89.50
3968;BME280;9221;42.646;23.380;2023-01-25T05:13:57;95618.19;;;1.76;89.54
3968;BME280;9221;42.646;23.380;2023-01-25T05:16:22;95574.84;;;1.77;89.63
3968;BME280;9221;42.646;23.380;2023-01-25T05:18:48;95591.09;;;1.99;89.73
3968;BME280;9221;42.646;23.380;2023-01-25T05:21:13;95562.28;;;2.04;89.00
3968;BME280;9221;42.646;23.380;2023-01-25T05:23:57;95535.25;;;1.89;88.29
3968;BME280;9221;42.646;23.380;2023-01-25T05:26:22;95604.31;;;2.14;87.49
3968;BME280;9221;42.646;23.380;2023-01-25T05:29:08;95612.22;;;1.93;87.99
3968;BME280;9221;42.646;23.380;2023-01-25T05:31:33;95618.00;;;1.81;88.56
3968;BME280;9221;42.646;23.380;2023-01-25T05:33:59;95578.19;;;1.79;88.77
3968;BME280;9221;42.646;23.380;2023-01-25T05:36:24;95561.13;;;1.73;89.45
3968;BME280;9221;42.646;23.380;2023-01-25T05:38:50;95568.91;;;1.92;89.36
3968;BME280;9221;42.646;23.380;2023-01-25T05:41:17;95545.63;;;1.72;89.19
3968;BME280;9221;42.646;23.380;2023-01-25T05:43:42;95454.25;;;1.06;89.71
3968;BME280;9221;42.646;23.380;2023-01-25T05:46:07;95544.50;;;1.58;90.09
3968;BME280;9221;42.646;23.380;2023-01-25T05:48:33;95636.78;;;1.68;90.53
3968;BME280;9221;42.646;23.380;2023-01-25T05:50:59;95609.97;;;1.66;90.95
3968;BME280;9221;42.646;23.380;2023-01-25T05:53:26;95530.69;;;1.39;90.59
3968;BME280;9221;42.646;23.380;2023-01-25T05:55:52;95522.06;;;1.38;91.47
3968;BME280;9221;42.646;23.380;2023-01-25T05:58:17;95582.34;;;1.83;90.22
3968;BME280;9221;42.646;23.380;2023-01-25T06:00:43;95590.59;;;1.74;90.23
3968;BME280;9221;42.646;23.380;2023-01-25T06:03:08;95541.63;;;1.64;90.79
3968;BME280;9221;42.646;23.380;2023-01-25T06:05:34;95576.22;;;1.84;90.00
3968;BME280;9221;42.646;23.380;2023-01-25T06:07:59;95565.41;;;1.93;89.94
3968;BME280;9221;42.646;23.380;2023-01-25T06:10:25;95575.22;;;2.06;89.60
3968;BME280;9221;42.646;23.380;2023-01-25T06:12:50;95620.66;;;2.16;89.44
3968;BME280;9221;42.646;23.380;2023-01-25T06:15:21;95540.94;;;1.97;88.84
3968;BME280;9221;42.646;23.380;2023-01-25T06:17:46;95586.13;;;2.31;88.78
3968;BME280;9221;42.646;23.380;2023-01-25T06:20:11;95607.16;;;2.27;88.23
3968;BME280;9221;42.646;23.380;2023-01-25T06:22:37;95562.78;;;2.30;87.99
3968;BME280;9221;42.646;23.380;2023-01-25T06:25:03;95638.97;;;2.51;87.55
3968;BME280;9221;42.646;23.380;2023-01-25T06:27:28;95553.88;;;2.16;87.50
3968;BME280;9221;42.646;23.380;2023-01-25T06:29:53;95628.84;;;2.45;87.25
3968;BME280;9221;42.646;23.380;2023-01-25T06:32:19;95606.34;;;2.44;87.30
3968;BME280;9221;42.646;23.380;2023-01-25T06:34:44;95604.81;;;2.40;87.50
3968;BME280;9221;42.646;23.380;2023-01-25T06:37:10;95606.25;;;2.45;88.10
3968;BME280;9221;42.646;23.380;2023-01-25T06:39:35;95584.66;;;2.43;87.51
3968;BME280;9221;42.646;23.380;2023-01-25T06:42:01;95610.38;;;1.95;87.46
3968;BME280;9221;42.646;23.380;2023-01-25T06:44:26;95596.22;;;2.37;87.43
3968;BME280;9221;42.646;23.380;2023-01-25T06:46:51;95594.69;;;2.33;88.13
3968;BME280;9221;42.646;23.380;2023-01-25T06:49:17;95555.63;;;2.16;88.45
3968;BME280;9221;42.646;23.380;2023-01-25T06:51:42;95565.72;;;2.05;88.61
3968;BME280;9221;42.646;23.380;2023-01-25T06:54:08;95581.13;;;2.09;89.27
3968;BME280;9221;42.646;23.380;2023-01-25T06:56:33;95532.34;;;1.78;89.19
3968;BME280;9221;42.646;23.380;2023-01-25T06:58:58;95549.97;;;1.71;89.03
3968;BME280;9221;42.646;23.380;2023-01-25T07:01:24;95571.63;;;1.72;89.68
3968;BME280;9221;42.646;23.380;2023-01-25T07:03:56;95605.16;;;1.95;89.97
3968;BME280;9221;42.646;23.380;2023-01-25T07:06:22;95625.72;;;1.63;89.91
3968;BME280;9221;42.646;23.380;2023-01-25T07:08:48;95583.34;;;1.61;89.96
3968;BME280;9221;42.646;23.380;2023-01-25T07:11:14;95592.84;;;1.62;90.19
3968;BME280;9221;42.646;23.380;2023-01-25T07:13:41;95537.66;;;1.19;90.97
3968;BME280;9221;42.646;23.380;2023-01-25T07:16:11;95644.56;;;1.49;91.15
3968;BME280;9221;42.646;23.380;2023-01-25T07:18:37;95596.16;;;1.66;91.43
3968;BME280;9221;42.646;23.380;2023-01-25T07:21:04;95607.59;;;1.81;90.99
3968;BME280;9221;42.646;23.380;2023-01-25T07:23:31;95590.44;;;1.77;90.63
3968;BME280;9221;42.646;23.380;2023-01-25T07:25:58;95547.31;;;1.73;90.25
3968;BME280;9221;42.646;23.380;2023-01-25T07:28:23;95539.66;;;1.69;90.10
3968;BME280;9221;42.646;23.380;2023-01-25T07:30:49;95609.06;;;1.86;90.79
3968;BME280;9221;42.646;23.380;2023-01-25T07:33:15;95602.25;;;1.84;90.70
3968;BME280;9221;42.646;23.380;2023-01-25T07:35:41;95630.22;;;1.79;91.33
3968;BME280;9221;42.646;23.380;2023-01-25T07:38:06;95590.03;;;1.86;91.00
3968;BME280;9221;42.646;23.380;2023-01-25T07:40:31;95591.69;;;1.87;91.14
3968;BME280;9221;42.646;23.380;2023-01-25T07:42:57;95615.78;;;2.10;91.35
3968;BME280;9221;42.646;23.380;2023-01-25T07:45:23;95646.88;;;2.30;91.04
3968;BME280;9221;42.646;23.380;2023-01-25T07:47:58;95554.25;;;2.09;90.85
3968;BME280;9221;42.646;23.380;2023-01-25T07:50:24;95627.56;;;2.53;90.54
3968;BME280;9221;42.646;23.380;2023-01-25T07:52:50;95603.72;;;2.44;89.97
3968;BME280;9221;42.646;23.380;2023-01-25T07:55:15;95595.59;;;2.15;90.03
3968;BME280;9221;42.646;23.380;2023-01-25T07:57:41;95582.22;;;2.03;90.40
3968;BME280;9221;42.646;23.380;2023-01-25T08:00:06;95559.59;;;2.06;90.72
3968;BME280;9221;42.646;23.380;2023-01-25T08:02:34;95599.28;;;2.46;90.77
3968;BME280;9221;42.646;23.380;2023-01-25T08:04:59;95607.56;;;2.54;90.39
3968;BME280;9221;42.646;23.380;2023-01-25T08:07:27;95599.00;;;2.52;90.36
3968;BME280;9221;42.646;23.380;2023-01-25T08:09:53;95609.09;;;2.58;90.29
3968;BME280;9221;42.646;23.380;2023-01-25T08:12:18;95600.59;;;2.72;90.19
3968;BME280;9221;42.646;23.380;2023-01-25T08:14:43;95532.22;;;2.33;90.07
3968;BME280;9221;42.646;23.380;2023-01-25T08:17:09;95555.09;;;2.44;89.48
3968;BME280;9221;42.646;23.380;2023-01-25T08:19:34;95596.53;;;2.66;89.44
3968;BME280;9221;42.646;23.380;2023-01-25T08:22:00;95558.03;;;2.20;89.73
3968;BME280;9221;42.646;23.380;2023-01-25T08:24:25;95545.63;;;2.26;90.36
3968;BME280;9221;42.646;23.380;2023-01-25T08:26:50;95579.53;;;2.59;90.12
3968;BME280;9221;42.646;23.380;2023-01-25T08:29:16;95700.41;;;2.73;90.18
3968;BME280;9221;42.646;23.380;2023-01-25T08:31:42;95599.97;;;2.49;90.40
3968;BME280;9221;42.646;23.380;2023-01-25T08:34:10;95594.06;;;2.46;91.16
3968;BME280;9221;42.646;23.380;2023-01-25T08:36:37;95623.66;;;2.45;91.50
3968;BME280;9221;42.646;23.380;2023-01-25T08:39:06;95537.09;;;2.05;91.97
3968;BME280;9221;42.646;23.380;2023-01-25T08:41:33;95646.44;;;2.40;92.86
3968;BME280;9221;42.646;23.380;2023-01-25T08:43:58;95620.25;;;2.43;93.02
3968;BME280;9221;42.646;23.380;2023-01-25T08:46:27;95558.16;;;2.52;92.73
3968;BME280;9221;42.646;23.380;2023-01-25T08:48:54;95586.88;;;2.86;92.43
3968;BME280;9221;42.646;23.380;2023-01-25T08:51:19;95537.41;;;2.68;91.24
3968;BME280;9221;42.646;23.380;2023-01-25T08:53:45;95527.00;;;2.68;91.18
3968;BME280;9221;42.646;23.380;2023-01-25T08:56:12;95589.97;;;3.10;90.89
3968;BME280;9221;42.646;23.380;2023-01-25T08:58:41;95637.91;;;3.08;90.61
3968;BME280;9221;42.646;23.380;2023-01-25T09:01:08;95709.69;;;2.96;90.48
3968;BME280;9221;42.646;23.380;2023-01-25T09:03:40;95582.75;;;2.82;90.28
3968;BME280;9221;42.646;23.380;2023-01-25T09:06:06;95591.75;;;2.92;91.17
3968;BME280;9221;42.646;23.380;2023-01-25T09:08:32;95619.34;;;2.96;91.86
3968;BME280;9221;42.646;23.380;2023-01-25T09:11:03;95508.63;;;2.54;91.37
3968;BME280;9221;42.646;23.380;2023-01-25T09:13:30;95555.66;;;3.02;91.19
3968;BME280;9221;42.646;23.380;2023-01-25T09:16:02;95529.22;;;2.92;90.08
3968;BME280;9221;42.646;23.380;2023-01-25T09:18:29;95613.22;;;2.97;91.08
3968;BME280;9221;42.646;23.380;2023-01-25T09:20:55;95589.47;;;2.86;91.38
3968;BME280;9221;42.646;23.380;2023-01-25T09:23:20;95618.72;;;3.09;91.84
3968;BME280;9221;42.646;23.380;2023-01-25T09:25:55;95592.34;;;3.15;91.99
3968;BME280;9221;42.646;23.380;2023-01-25T09:28:20;95608.16;;;3.12;92.26
3968;BME280;9221;42.646;23.380;2023-01-25T09:30:53;95531.94;;;2.91;92.46
3968;BME280;9221;42.646;23.380;2023-01-25T09:33:18;95526.03;;;2.87;91.82
3968;BME280;9221;42.646;23.380;2023-01-25T09:35:48;95568.00;;;2.98;91.41
3968;BME280;9221;42.646;23.380;2023-01-25T09:38:13;95511.28;;;2.70;91.97
3968;BME280;9221;42.646;23.380;2023-01-25T09:40:54;95550.81;;;3.12;92.38
3968;BME280;9221;42.646;23.380;2023-01-25T09:43:47;95548.47;;;3.23;92.23
3968;BME280;9221;42.646;23.380;2023-01-25T09:46:39;95433.41;;;2.65;91.68
3968;BME280;9221;42.646;23.380;2023-01-25T09:54:44;95614.59;;;3.54;89.90
3968;BME280;9221;42.646;23.380;2023-01-25T09:57:16;95486.94;;;3.36;88.78
3968;BME280;9221;42.646;23.380;2023-01-25T09:59:43;95520.91;;;3.67;88.78
3968;BME280;9221;42.646;23.380;2023-01-25T10:02:59;95529.63;;;3.50;87.89
3968;BME280;9221;42.646;23.380;2023-01-25T10:05:07;95511.06;;;3.56;87.99
3968;BME280;9221;42.646;23.380;2023-01-25T10:07:56;95512.00;;;3.55;88.30
3968;BME280;9221;42.646;23.380;2023-01-25T10:10:34;95493.06;;;3.35;88.13
3968;BME280;9221;42.646;23.380;2023-01-25T10:13:01;95517.69;;;3.46;88.42
3968;BME280;9221;42.646;23.380;2023-01-25T10:15:36;95464.22;;;3.38;88.29
3968;BME280;9221;42.646;23.380;2023-01-25T10:18:22;95449.66;;;3.66;87.16
3968;BME280;9221;42.646;23.380;2023-01-25T10:21:02;95441.84;;;3.66;85.61
3968;BME280;9221;42.646;23.380;2023-01-25T10:26:14;95485.69;;;3.90;84.76
3968;BME280;9221;42.646;23.380;2023-01-25T10:29:36;95474.75;;;3.99;83.74
3968;BME280;9221;42.646;23.380;2023-01-25T10:31:52;95363.69;;;3.02;84.45
3968;BME280;9221;42.646;23.380;2023-01-25T10:34:20;95470.09;;;3.58;84.69
3968;BME280;9221;42.646;23.380;2023-01-25T10:36:53;95475.19;;;3.76;85.15
3968;BME280;9221;42.646;23.380;2023-01-25T10:39:19;95411.34;;;3.36;84.33
3968;BME280;9221;42.646;23.380;2023-01-25T10:42:04;95472.25;;;3.82;83.07
3968;BME280;9221;42.646;23.380;2023-01-25T10:44:35;95397.25;;;3.55;82.16
3968;BME280;9221;42.646;23.380;2023-01-25T10:47:13;95457.97;;;4.03;82.88
3968;BME280;9221;42.646;23.380;2023-01-25T10:49:50;95464.44;;;4.12;82.25
3968;BME280;9221;42.646;23.380;2023-01-25T10:52:22;95420.69;;;4.01;82.01
3968;BME280;9221;42.646;23.380;2023-01-25T10:57:28;95416.09;;;3.60;82.60
3968;BME280;9221;42.646;23.380;2023-01-25T11:00:01;95337.28;;;3.09;82.93
3968;BME280;9221;42.646;23.380;2023-01-25T11:02:44;95461.94;;;3.95;82.63
3968;BME280;9221;42.646;23.380;2023-01-25T11:07:45;95379.84;;;3.86;81.14
3968;BME280;9221;42.646;23.380;2023-01-25T11:16:08;95421.50;;;4.47;79.74
3968;BME280;9221;42.646;23.380;2023-01-25T11:18:48;95537.06;;;4.50;79.19
3968;BME280;9221;42.646;23.380;2023-01-25T11:21:20;95364.03;;;4.18;78.36
3968;BME280;9221;42.646;23.380;2023-01-25T11:26:32;95409.94;;;4.65;78.49
3968;BME280;9221;42.646;23.380;2023-01-25T11:29:21;95409.00;;;4.52;78.15
3968;BME280;9221;42.646;23.380;2023-01-25T11:31:55;95395.47;;;4.45;78.86
3968;BME280;9221;42.646;23.380;2023-01-25T11:34:27;95421.75;;;4.28;78.87
3968;BME280;9221;42.646;23.380;2023-01-25T11:42:05;95442.38;;;4.47;78.27
3968;BME280;9221;42.646;23.380;2023-01-25T11:50:37;95375.06;;;4.37;79.17
3968;BME280;9221;42.646;23.380;2023-01-25T12:06:56;95356.97;;;4.49;79.02
3968;BME280;9221;42.646;23.380;2023-01-25T12:18:13;95382.13;;;4.35;78.88
3968;BME280;9221;42.646;23.380;2023-01-25T12:23:20;95347.53;;;4.46;78.77
3968;BME280;9221;42.646;23.380;2023-01-25T12:28:29;95380.44;;;4.05;79.93
3968;BME280;9221;42.646;23.380;2023-01-25T12:31:03;95343.25;;;4.31;80.14
3968;BME280;9221;42.646;23.380;2023-01-25T12:33:46;95330.31;;;4.29;79.30
3968;BME280;9221;42.646;23.380;2023-01-25T12:36:17;95329.72;;;4.38;79.28
3968;BME280;9221;42.646;23.380;2023-01-25T12:39:02;95376.56;;;4.42;78.63
3968;BME280;9221;42.646;23.380;2023-01-25T12:44:26;95336.53;;;4.12;78.56
3968;BME280;9221;42.646;23.380;2023-01-25T12:47:01;95300.03;;;3.53;79.25
3968;BME280;9221;42.646;23.380;2023-01-25T12:52:00;95282.81;;;3.65;79.81
3968;BME280;9221;42.646;23.380;2023-01-25T12:54:30;95324.44;;;4.26;79.21
3968;BME280;9221;42.646;23.380;2023-01-25T12:57:08;95290.56;;;4.10;79.31
3968;BME280;9221;42.646;23.380;2023-01-25T12:59:49;95335.50;;;4.15;78.32
3968;BME280;9221;42.646;23.380;2023-01-25T13:08:26;95275.47;;;3.86;78.97
3968;BME280;9221;42.646;23.380;2023-01-25T13:13:42;95308.63;;;3.69;78.81
3968;BME280;9221;42.646;23.380;2023-01-25T13:18:57;95331.03;;;4.02;79.03
3968;BME280;9221;42.646;23.380;2023-01-25T13:24:23;95299.69;;;4.17;78.73
3968;BME280;9221;42.646;23.380;2023-01-25T13:26:57;95243.31;;;3.71;77.71
3968;BME280;9221;42.646;23.380;2023-01-25T13:32:09;95325.31;;;3.36;79.53
3968;BME280;9221;42.646;23.380;2023-01-25T13:37:26;95311.81;;;3.75;79.65
3968;BME280;9221;42.646;23.380;2023-01-25T13:39:59;95145.09;;;2.83;79.76
3968;BME280;9221;42.646;23.380;2023-01-25T13:42:27;95251.69;;;3.62;79.42
3968;BME280;9221;42.646;23.380;2023-01-25T13:44:55;95258.69;;;3.76;79.20
3968;BME280;9221;42.646;23.380;2023-01-25T13:47:29;95342.94;;;3.92;79.21
3968;BME280;9221;42.646;23.380;2023-01-25T13:52:38;95292.13;;;3.69;79.72
3968;BME280;9221;42.646;23.380;2023-01-25T13:55:19;95385.28;;;3.67;79.96
3968;BME280;9221;42.646;23.380;2023-01-25T13:57:45;95309.34;;;3.57;79.95
3968;BME280;9221;42.646;23.380;2023-01-25T14:00:14;95259.47;;;3.02;81.06
3968;BME280;9221;42.646;23.380;2023-01-25T14:02:45;95307.81;;;3.38;81.39
3968;BME280;9221;42.646;23.380;2023-01-25T14:05:22;95271.59;;;3.03;81.33
3968;BME280;9221;42.646;23.380;2023-01-25T14:07:52;95334.78;;;2.91;81.42
3968;BME280;9221;42.646;23.380;2023-01-25T14:10:20;95353.28;;;3.49;81.99
3968;BME280;9221;42.646;23.380;2023-01-25T14:12:49;95302.34;;;3.58;81.40
3968;BME280;9221;42.646;23.380;2023-01-25T14:17:45;95429.41;;;3.55;81.46
3968;BME280;9221;42.646;23.380;2023-01-25T14:20:21;95332.09;;;3.69;81.02
3968;BME280;9221;42.646;23.380;2023-01-25T14:22:48;95300.63;;;3.72;80.63
3968;BME280;9221;42.646;23.380;2023-01-25T14:25:16;95316.06;;;3.76;80.50
3968;BME280;9221;42.646;23.380;2023-01-25T14:32:40;95308.31;;;3.29;81.41
3968;BME280;9221;42.646;23.380;2023-01-25T14:35:45;95291.16;;;3.41;81.52
3968;BME280;9221;42.646;23.380;2023-01-25T14:38:33;95229.34;;;3.13;81.81
3968;BME280;9221;42.646;23.380;2023-01-25T14:43:48;95324.94;;;3.43;81.03
3968;BME280;9221;42.646;23.380;2023-01-25T14:46:19;95276.69;;;3.35;81.71
3968;BME280;9221;42.646;23.380;2023-01-25T14:48:44;95283.38;;;3.25;81.28
3968;BME280;9221;42.646;23.380;2023-01-25T14:51:26;95280.13;;;3.21;81.66
3968;BME280;9221;42.646;23.380;2023-01-25T14:53:59;95318.09;;;3.26;81.84
3968;BME280;9221;42.646;23.380;2023-01-25T14:56:38;95286.66;;;3.29;81.97
3968;BME280;9221;42.646;23.380;2023-01-25T14:59:13;95229.25;;;2.84;81.09
3968;BME280;9221;42.646;23.380;2023-01-25T15:01:48;95286.22;;;2.90;82.74
3968;BME280;9221;42.646;23.380;2023-01-25T15:04:14;95246.09;;;2.62;83.31
3968;BME280;9221;42.646;23.380;2023-01-25T15:06:50;95349.75;;;3.03;83.89
3968;BME280;9221;42.646;23.380;2023-01-25T15:10:11;95308.84;;;2.74;84.19
3968;BME280;9221;42.646;23.380;2023-01-25T15:12:39;95298.00;;;2.65;84.92